Time;durP1;ratioP1;P1;durP2;ratioP2;P2;SDS_P1;SDS_P2;PMS_P1;PMS_P2;Temp;Humidity;BMP_temperature;BMP_pressure;BME280_temperature;BME280_humidity;BME280_pressure;Samples;Min_cycle;Max_cycle;Signal;HPM_P1;HPM_P2
2021/09/13 00:00:15;;;;;;;19.02;13.77;;;;;;;;;;5030875;28;20481;-64
2021/09/13 00:02:41;;;;;;;20.30;13.63;;;;;;;;;;5031750;28;20053;-64
2021/09/13 00:05:08;;;;;;;20.08;13.68;;;;;;;;;;5035738;28;20512;-64
2021/09/13 00:07:34;;;;;;;21.73;13.70;;;;;;;;;;5051594;28;20021;-64
2021/09/13 00:09:59;;;;;;;17.90;13.35;;;;;;;;;;5051980;28;20032;-63
2021/09/13 00:12:25;;;;;;;18.15;13.88;;;;;;;;;;5055631;28;20100;-64
2021/09/13 00:14:51;;;;;;;21.10;13.55;;;;;;;;;;5054199;28;20500;-63
2021/09/13 00:17:17;;;;;;;20.00;13.93;;;;;;;;;;5055553;28;20100;-63
2021/09/13 00:19:43;;;;;;;20.65;14.57;;;;;;;;;;5054846;28;20488;-64
2021/09/13 00:22:09;;;;;;;21.67;13.80;;;;;;;;;;5056147;28;20025;-64
2021/09/13 00:24:35;;;;;;;22.80;14.57;;;;;;;;;;5054993;28;20071;-64
2021/09/13 00:27:01;;;;;;;19.60;14.60;;;;;;;;;;5055701;28;20485;-64
2021/09/13 00:29:27;;;;;;;18.70;13.95;;;;;;;;;;5055852;28;20053;-64
2021/09/13 00:31:53;;;;;;;19.52;14.35;;;;;;;;;;5055472;28;20104;-64
2021/09/13 00:34:19;;;;;;;20.65;14.95;;;;;;;;;;5038218;28;20025;-65
2021/09/13 00:36:45;;;;;;;23.10;14.27;;;;;;;;;;5035240;28;20103;-64
2021/09/13 00:39:11;;;;;;;19.63;14.23;;;;;;;;;;5035362;28;20064;-63
2021/09/13 00:41:37;;;;;;;22.48;14.02;;;;;;;;;;5035356;28;20396;-63
2021/09/13 00:44:03;;;;;;;19.60;14.43;;;;;;;;;;5035022;28;20030;-64
2021/09/13 00:46:29;;;;;;;20.42;15.55;;;;;;;;;;5033972;28;20473;-64
2021/09/13 00:48:57;;;;;;;22.17;16.00;;;;;;;;;;5035063;28;20025;-64
2021/09/13 00:51:24;;;;;;;18.75;14.27;;;;;;;;;;5035015;28;20030;-64
2021/09/13 00:53:50;;;;;;;21.05;15.23;;;;;;;;;;5034674;28;20422;-63
2021/09/13 00:56:16;;;;;;;22.75;15.45;;;;;;;;;;5035294;28;20489;-64
2021/09/13 00:58:42;;;;;;;21.23;15.68;;;;;;;;;;5034805;28;20473;-64
2021/09/13 01:01:08;;;;;;;22.33;14.90;;;;;;;;;;5042005;28;20029;-64
2021/09/13 01:03:34;;;;;;;22.30;15.45;;;;;;;;;;5053239;28;20036;-64
2021/09/13 01:06:00;;;;;;;21.70;15.98;;;;;;;;;;5054717;28;20100;-64
2021/09/13 01:08:26;;;;;;;22.58;15.68;;;;;;;;;;5053435;28;20025;-63
2021/09/13 01:10:55;;;;;;;20.80;15.45;;;;;;;;;;5054660;28;20393;-66
2021/09/13 01:13:21;;;;;;;22.98;17.13;;;;;;;;;;5053305;28;20428;-64
2021/09/13 01:15:47;;;;;;;22.67;16.45;;;;;;;;;;5054585;28;20075;-63
2021/09/13 01:18:13;;;;;;;24.13;16.77;;;;;;;;;;5054388;28;20052;-64
2021/09/13 01:20:39;;;;;;;21.38;15.85;;;;;;;;;;5053927;28;20025;-64
2021/09/13 01:23:09;;;;;;;23.25;16.52;;;;;;;;;;5054224;28;20447;-64
2021/09/13 01:25:35;;;;;;;22.38;16.50;;;;;;;;;;5052883;28;20224;-64
2021/09/13 01:28:01;;;;;;;22.67;16.88;;;;;;;;;;5053833;28;20093;-64
2021/09/13 01:30:27;;;;;;;22.38;17.10;;;;;;;;;;5054200;28;20507;-63
2021/09/13 01:32:53;;;;;;;22.02;16.30;;;;;;;;;;5054215;28;20025;-64
2021/09/13 01:35:19;;;;;;;23.10;18.45;;;;;;;;;;5053913;28;20116;-64
2021/09/13 01:37:45;;;;;;;24.75;17.48;;;;;;;;;;5045606;28;20041;-64
2021/09/13 01:40:11;;;;;;;23.90;17.15;;;;;;;;;;5033120;28;20037;-64
2021/09/13 01:42:37;;;;;;;22.40;17.45;;;;;;;;;;5032895;28;20437;-64
2021/09/13 01:45:03;;;;;;;22.38;17.48;;;;;;;;;;5032667;28;20022;-64
2021/09/13 01:47:30;;;;;;;22.05;17.88;;;;;;;;;;5034297;28;20025;-64
2021/09/13 01:49:56;;;;;;;23.30;17.23;;;;;;;;;;5033899;28;20428;-64
2021/09/13 01:52:22;;;;;;;22.65;17.15;;;;;;;;;;5032638;28;20029;-63
2021/09/13 01:54:48;;;;;;;22.45;17.00;;;;;;;;;;5033727;28;20029;-63
2021/09/13 01:57:14;;;;;;;22.10;17.08;;;;;;;;;;5044170;28;20039;-64
2021/09/13 01:59:40;;;;;;;21.90;16.45;;;;;;;;;;5053666;28;20044;-64
2021/09/13 02:02:06;;;;;;;23.63;16.88;;;;;;;;;;5052444;28;20132;-64
2021/09/13 02:04:32;;;;;;;23.55;17.98;;;;;;;;;;5051924;28;20516;-64
2021/09/13 02:06:58;;;;;;;22.20;17.08;;;;;;;;;;5052380;28;20025;-64
2021/09/13 02:09:24;;;;;;;23.15;16.88;;;;;;;;;;5052335;28;20432;-64
2021/09/13 02:11:50;;;;;;;22.80;16.73;;;;;;;;;;5053697;28;20028;-66
2021/09/13 02:14:16;;;;;;;22.05;16.67;;;;;;;;;;5052165;28;20029;-66
2021/09/13 02:16:42;;;;;;;21.67;16.15;;;;;;;;;;5052197;28;20033;-66
2021/09/13 02:19:08;;;;;;;23.60;17.02;;;;;;;;;;5053129;28;20107;-66
2021/09/13 02:21:34;;;;;;;23.90;17.35;;;;;;;;;;5053257;28;20060;-64
2021/09/13 02:24:00;;;;;;;22.27;15.85;;;;;;;;;;5051606;28;20088;-66
2021/09/13 02:26:26;;;;;;;21.17;16.00;;;;;;;;;;5053304;28;20488;-67
2021/09/13 02:28:52;;;;;;;22.45;16.73;;;;;;;;;;5051419;28;20051;-64
2021/09/13 02:31:18;;;;;;;21.95;17.13;;;;;;;;;;5052553;28;20029;-64
2021/09/13 02:33:44;;;;;;;23.60;17.00;;;;;;;;;;5051548;28;20404;-63
2021/09/13 02:36:10;;;;;;;22.52;18.13;;;;;;;;;;5052921;28;20082;-64
2021/09/13 02:38:36;;;;;;;24.13;18.75;;;;;;;;;;5052936;28;20481;-64
2021/09/13 02:41:02;;;;;;;24.10;17.67;;;;;;;;;;5051134;28;20119;-64
2021/09/13 02:43:28;;;;;;;22.50;18.08;;;;;;;;;;5051063;28;20060;-63
2021/09/13 02:45:54;;;;;;;24.38;17.90;;;;;;;;;;5051063;28;20108;-64
2021/09/13 02:48:20;;;;;;;25.00;17.83;;;;;;;;;;5051495;28;20096;-64
2021/09/13 02:50:45;;;;;;;23.17;16.73;;;;;;;;;;5051339;28;20108;-64
2021/09/13 02:53:11;;;;;;;23.63;17.60;;;;;;;;;;5052339;28;20056;-63
2021/09/13 02:55:37;;;;;;;22.33;17.35;;;;;;;;;;5052254;28;20028;-64
2021/09/13 02:58:03;;;;;;;26.20;17.08;;;;;;;;;;5052666;28;20550;-63
2021/09/13 03:00:30;;;;;;;21.02;16.58;;;;;;;;;;5053352;28;20380;-63
2021/09/13 03:02:55;;;;;;;20.73;15.90;;;;;;;;;;5050900;28;20052;-62
2021/09/13 03:05:21;;;;;;;22.33;16.88;;;;;;;;;;5050709;28;20513;-64
2021/09/13 03:07:47;;;;;;;24.95;17.17;;;;;;;;;;5051978;28;20029;-64
2021/09/13 03:10:14;;;;;;;23.92;17.58;;;;;;;;;;5052389;28;20408;-64
2021/09/13 03:12:40;;;;;;;23.83;18.45;;;;;;;;;;5051076;28;20028;-63
2021/09/13 03:15:07;;;;;;;21.83;18.40;;;;;;;;;;5051893;28;20028;-63
2021/09/13 03:17:33;;;;;;;24.17;18.10;;;;;;;;;;5052288;28;20024;-64
2021/09/13 03:19:59;;;;;;;21.92;17.95;;;;;;;;;;5052516;28;20021;-64
2021/09/13 03:22:26;;;;;;;23.65;18.98;;;;;;;;;;5052047;28;20469;-64
2021/09/13 03:24:52;;;;;;;25.25;19.35;;;;;;;;;;5050658;28;20028;-64
2021/09/13 03:27:18;;;;;;;24.90;18.50;;;;;;;;;;5050321;28;20025;-63
2021/09/13 03:29:44;;;;;;;28.60;19.60;;;;;;;;;;5052018;28;20021;-64
2021/09/13 03:32:10;;;;;;;23.33;18.52;;;;;;;;;;5050818;28;20028;-64
2021/09/13 03:34:36;;;;;;;23.67;19.00;;;;;;;;;;5051951;28;20055;-64
2021/09/13 03:37:03;;;;;;;27.70;19.50;;;;;;;;;;5050652;28;20029;-64
2021/09/13 03:39:29;;;;;;;23.08;18.23;;;;;;;;;;5052032;28;20025;-64
2021/09/13 03:41:55;;;;;;;23.08;18.08;;;;;;;;;;5052160;28;20386;-65
2021/09/13 03:44:21;;;;;;;24.58;19.20;;;;;;;;;;5055706;28;20584;-64
2021/09/13 03:46:47;;;;;;;26.65;20.33;;;;;;;;;;5055639;28;20112;-66
2021/09/13 03:49:13;;;;;;;24.45;18.60;;;;;;;;;;5058182;28;20380;-64
2021/09/13 03:51:39;;;;;;;24.55;18.73;;;;;;;;;;5058924;28;20029;-63
2021/09/13 03:54:05;;;;;;;24.05;18.77;;;;;;;;;;5057377;28;20397;-64
2021/09/13 03:56:31;;;;;;;25.00;18.85;;;;;;;;;;5056907;28;20032;-63
2021/09/13 03:58:57;;;;;;;26.30;18.73;;;;;;;;;;5058427;28;20033;-63
2021/09/13 04:01:23;;;;;;;26.90;19.45;;;;;;;;;;5058584;28;20544;-63
2021/09/13 04:03:50;;;;;;;24.38;19.58;;;;;;;;;;5058274;28;20083;-64
2021/09/13 04:06:25;;;;;;;25.42;19.63;;;;;;;;;;5058100;28;20017;-64
2021/09/13 04:09:39;;;;;;;26.75;21.00;;;;;;;;;;5058451;28;20489;-64
2021/09/13 04:11:54;;;;;;;29.42;21.45;;;;;;;;;;5058355;28;20143;-64
2021/09/13 04:14:20;;;;;;;30.00;21.60;;;;;;;;;;5056947;28;20075;-64
2021/09/13 04:16:46;;;;;;;24.33;20.98;;;;;;;;;;5058413;28;20029;-66
2021/09/13 04:19:12;;;;;;;26.98;20.77;;;;;;;;;;5057398;28;20140;-64
2021/09/13 04:21:39;;;;;;;27.50;20.50;;;;;;;;;;5058236;28;20104;-64
2021/09/13 04:24:05;;;;;;;30.23;20.40;;;;;;;;;;5056748;28;20021;-64
2021/09/13 04:26:31;;;;;;;25.73;21.17;;;;;;;;;;5056865;28;20029;-64
2021/09/13 04:28:57;;;;;;;26.52;20.40;;;;;;;;;;5039504;28;20512;-64
2021/09/13 04:31:23;;;;;;;31.02;22.50;;;;;;;;;;5036663;28;20028;-64
2021/09/13 04:33:51;;;;;;;25.23;21.42;;;;;;;;;;5036467;28;20378;-64
2021/09/13 04:36:17;;;;;;;25.75;21.63;;;;;;;;;;5036824;28;20032;-64
2021/09/13 04:38:43;;;;;;;27.02;21.08;;;;;;;;;;5038112;28;20116;-64
2021/09/13 04:41:09;;;;;;;27.60;20.90;;;;;;;;;;5036871;28;20494;-64
2021/09/13 04:43:35;;;;;;;28.77;20.92;;;;;;;;;;5036319;28;20013;-64
2021/09/13 04:46:01;;;;;;;25.55;20.67;;;;;;;;;;5051278;28;20025;-64
2021/09/13 04:48:27;;;;;;;26.85;20.88;;;;;;;;;;5056574;28;20128;-63
2021/09/13 04:50:53;;;;;;;26.60;20.15;;;;;;;;;;5056520;28;20028;-64
2021/09/13 04:53:20;;;;;;;24.77;20.77;;;;;;;;;;5057576;28;20357;-64
2021/09/13 04:55:46;;;;;;;25.88;21.63;;;;;;;;;;5054037;28;20028;-65
2021/09/13 04:58:13;;;;;;;25.30;20.65;;;;;;;;;;5054441;28;20029;-64
2021/09/13 05:00:39;;;;;;;28.70;21.35;;;;;;;;;;5052315;28;20473;-64
2021/09/13 05:03:05;;;;;;;28.75;21.42;;;;;;;;;;5052349;28;20036;-64
2021/09/13 05:05:31;;;;;;;26.77;21.77;;;;;;;;;;5052886;28;20405;-65
2021/09/13 05:07:57;;;;;;;29.45;21.98;;;;;;;;;;5053969;28;20072;-64
2021/09/13 05:10:23;;;;;;;29.02;21.60;;;;;;;;;;5052644;28;20070;-67
2021/09/13 05:12:49;;;;;;;26.92;21.17;;;;;;;;;;5053947;28;20028;-67
2021/09/13 05:15:15;;;;;;;28.20;22.23;;;;;;;;;;5053711;28;20025;-64
2021/09/13 05:17:41;;;;;;;27.67;22.15;;;;;;;;;;5053029;28;20024;-64
2021/09/13 05:20:08;;;;;;;25.83;21.30;;;;;;;;;;5049145;28;20017;-65
2021/09/13 05:22:34;;;;;;;26.73;22.02;;;;;;;;;;5049257;28;20057;-65
2021/09/13 05:25:00;;;;;;;27.80;21.42;;;;;;;;;;5053681;28;20074;-65
2021/09/13 05:27:26;;;;;;;25.02;20.83;;;;;;;;;;5042284;28;20079;-65
2021/09/13 05:29:52;;;;;;;25.50;21.42;;;;;;;;;;5053470;28;20370;-65
2021/09/13 05:32:18;;;;;;;26.20;21.42;;;;;;;;;;5052363;28;20029;-65
2021/09/13 05:34:44;;;;;;;28.10;22.75;;;;;;;;;;5052260;28;20032;-65
2021/09/13 05:37:10;;;;;;;24.25;20.40;;;;;;;;;;5036588;28;20041;-64
2021/09/13 05:39:36;;;;;;;27.42;22.30;;;;;;;;;;5032138;28;20535;-65
2021/09/13 05:42:02;;;;;;;26.75;21.90;;;;;;;;;;5041663;28;20032;-65
2021/09/13 05:44:28;;;;;;;27.52;21.92;;;;;;;;;;5053043;28;20493;-65
2021/09/13 05:46:54;;;;;;;24.70;20.58;;;;;;;;;;5051764;28;20183;-65
2021/09/13 05:49:20;;;;;;;28.08;22.95;;;;;;;;;;5053476;28;20104;-65
2021/09/13 05:51:50;;;;;;;25.52;20.88;;;;;;;;;;5053114;28;20053;-65
2021/09/13 05:54:21;;;;;;;25.67;20.40;;;;;;;;;;5036590;28;20104;-64
2021/09/13 05:56:49;;;;;;;24.33;20.33;;;;;;;;;;5032509;28;20441;-65
2021/09/13 05:59:15;;;;;;;;;;;;;;;;;;5032725;28;20458;-65
2021/09/13 06:01:41;;;;;;;25.73;20.65;;;;;;;;;;5034317;28;20016;-65
2021/09/13 06:04:07;;;;;;;26.08;20.50;;;;;;;;;;5032269;28;20029;-67
2021/09/13 06:06:33;;;;;;;24.98;19.67;;;;;;;;;;5044486;28;20030;-63
2021/09/13 06:08:59;;;;;;;22.65;18.38;;;;;;;;;;5052310;28;20529;-62
2021/09/13 06:11:27;;;;;;;22.13;18.00;;;;;;;;;;5052990;28;20049;-63
2021/09/13 06:13:54;;;;;;;22.08;18.38;;;;;;;;;;5052455;28;20021;-63
2021/09/13 06:16:20;;;;;;;23.27;18.25;;;;;;;;;;5051631;28;20061;-64
2021/09/13 06:18:46;;;;;;;23.45;18.40;;;;;;;;;;5052798;28;20036;-63
2021/09/13 06:21:12;;;;;;;26.77;20.73;;;;;;;;;;5050509;28;20481;-63
2021/09/13 06:23:38;;;;;;;22.77;19.45;;;;;;;;;;5052639;28;20057;-63
2021/09/13 06:26:04;;;;;;;24.33;19.67;;;;;;;;;;5052739;28;20021;-63
2021/09/13 06:28:30;;;;;;;26.33;20.40;;;;;;;;;;5068006;28;20029;-64
2021/09/13 06:30:56;;;;;;;25.75;21.10;;;;;;;;;;5051908;28;20057;-64
2021/09/13 06:33:22;;;;;;;23.25;19.27;;;;;;;;;;5052433;28;20061;-64
2021/09/13 06:35:48;;;;;;;22.42;18.95;;;;;;;;;;5033455;28;20030;-64
2021/09/13 06:38:14;;;;;;;27.58;20.60;;;;;;;;;;5031329;28;20033;-64
2021/09/13 06:40:40;;;;;;;24.83;19.38;;;;;;;;;;5031103;28;20045;-63
2021/09/13 06:43:07;;;;;;;24.38;18.92;;;;;;;;;;5030845;28;20072;-64
2021/09/13 06:45:41;;;;;;;25.02;19.58;;;;;;;;;;5042820;28;20086;-64
2021/09/13 06:48:11;;;;;;;24.73;19.63;;;;;;;;;;5052336;28;20017;-63
2021/09/13 06:50:37;;;;;;;24.80;18.92;;;;;;;;;;5050686;28;20017;-63
2021/09/13 06:53:04;;;;;;;25.85;19.42;;;;;;;;;;5050470;28;20036;-63
2021/09/13 06:55:30;;;;;;;26.95;19.25;;;;;;;;;;5035806;28;20029;-64
2021/09/13 06:57:56;;;;;;;24.90;18.45;;;;;;;;;;5031016;28;20032;-63
2021/09/13 07:00:22;;;;;;;24.00;18.40;;;;;;;;;;5038602;28;20111;-64
2021/09/13 07:02:48;;;;;;;23.50;18.23;;;;;;;;;;5052062;28;20476;-63
2021/09/13 07:05:15;;;;;;;23.15;18.17;;;;;;;;;;5050615;28;20024;-65
2021/09/13 07:07:41;;;;;;;22.90;18.55;;;;;;;;;;5052083;28;20104;-65
2021/09/13 07:10:08;;;;;;;31.13;19.45;;;;;;;;;;5050671;28;20062;-65
2021/09/13 07:12:34;;;;;;;21.48;17.20;;;;;;;;;;5051623;28;20397;-65
2021/09/13 07:15:00;;;;;;;22.75;18.30;;;;;;;;;;5050232;28;20117;-57
2021/09/13 07:17:26;;;;;;;21.23;16.77;;;;;;;;;;5050180;28;20056;-57
2021/09/13 07:19:52;;;;;;;23.02;17.20;;;;;;;;;;5050129;28;20033;-56
2021/09/13 07:22:19;;;;;;;22.00;16.15;;;;;;;;;;5042723;28;20025;-54
2021/09/13 07:24:46;;;;;;;21.33;16.38;;;;;;;;;;5031389;28;20021;-57
2021/09/13 07:27:12;;;;;;;21.30;17.05;;;;;;;;;;5031596;28;20532;-55
2021/09/13 07:29:39;;;;;;;21.67;16.02;;;;;;;;;;5031386;28;20382;-58
2021/09/13 07:32:05;;;;;;;21.73;17.00;;;;;;;;;;5031446;28;20061;-56
2021/09/13 07:34:31;;;;;;;23.55;17.08;;;;;;;;;;5045038;28;20481;-53
2021/09/13 07:36:57;;;;;;;22.73;16.75;;;;;;;;;;5048481;28;20033;-56
2021/09/13 07:39:24;;;;;;;23.35;16.55;;;;;;;;;;5050603;28;20020;-57
2021/09/13 07:41:50;;;;;;;21.05;15.48;;;;;;;;;;5038918;28;20030;-56
2021/09/13 07:44:16;;;;;;;20.77;15.55;;;;;;;;;;5031259;28;20022;-56
2021/09/13 07:46:42;;;;;;;22.58;15.43;;;;;;;;;;5030099;28;20117;-58
2021/09/13 07:49:08;;;;;;;20.45;15.40;;;;;;;;;;5031274;28;20096;-56
2021/09/13 07:51:34;;;;;;;20.83;16.40;;;;;;;;;;5030162;28;20030;-54
2021/09/13 07:54:00;;;;;;;21.15;15.30;;;;;;;;;;5031144;28;20036;-56
2021/09/13 07:56:26;;;;;;;20.05;15.13;;;;;;;;;;5031062;28;20025;-52
2021/09/13 07:58:52;;;;;;;21.75;16.00;;;;;;;;;;5031775;28;20025;-57
2021/09/13 08:01:18;;;;;;;22.08;14.88;;;;;;;;;;5031170;28;20419;-57
2021/09/13 08:03:44;;;;;;;24.15;15.35;;;;;;;;;;5029852;28;20536;-56
2021/09/13 08:06:10;;;;;;;21.73;15.57;;;;;;;;;;5031139;28;20030;-59
2021/09/13 08:08:36;;;;;;;20.88;14.32;;;;;;;;;;5031312;28;20097;-55
2021/09/13 08:11:03;;;;;;;19.80;15.25;;;;;;;;;;5030995;28;20030;-58
2021/09/13 08:13:29;;;;;;;20.85;14.93;;;;;;;;;;5029938;28;20026;-53
2021/09/13 08:15:55;;;;;;;20.40;16.80;;;;;;;;;;5029867;28;20025;-56
2021/09/13 08:18:21;;;;;;;22.85;15.05;;;;;;;;;;5029813;28;20029;-57
2021/09/13 08:20:47;;;;;;;19.38;15.20;;;;;;;;;;5039500;28;20059;-57
2021/09/13 08:23:13;;;;;;;21.80;14.43;;;;;;;;;;5051033;28;20029;-58
2021/09/13 08:25:39;;;;;;;19.10;15.23;;;;;;;;;;5050906;28;20223;-58
2021/09/13 08:28:05;;;;;;;19.35;14.95;;;;;;;;;;5049848;28;20017;-57
2021/09/13 08:30:31;;;;;;;19.20;14.15;;;;;;;;;;5050511;28;20484;-57
2021/09/13 08:32:59;;;;;;;19.02;14.20;;;;;;;;;;5054361;28;20025;-58
2021/09/13 08:35:25;;;;;;;18.15;13.65;;;;;;;;;;5053948;28;20087;-57
2021/09/13 08:37:51;;;;;;;20.55;14.18;;;;;;;;;;5052926;28;20033;-57
2021/09/13 08:40:17;;;;;;;21.80;14.02;;;;;;;;;;5052581;28;20038;-58
2021/09/13 08:42:45;;;;;;;19.45;13.32;;;;;;;;;;5054461;28;20025;-58
2021/09/13 08:45:12;;;;;;;19.33;12.52;;;;;;;;;;5050917;28;20488;-58
2021/09/13 08:47:51;;;;;;;17.67;12.90;;;;;;;;;;5054066;28;20025;-58
2021/09/13 08:53:16;;;;;;;29.10;14.30;;;;;;;;;;5049339;28;20025;-57
2021/09/13 08:55:44;;;;;;;18.42;12.55;;;;;;;;;;5048674;28;20425;-59
2021/09/13 08:58:11;;;;;;;17.52;12.30;;;;;;;;;;5031783;28;20084;-59
2021/09/13 09:00:37;;;;;;;18.27;13.10;;;;;;;;;;5031522;28;20025;-61
2021/09/13 09:03:04;;;;;;;18.15;12.48;;;;;;;;;;5029486;28;20106;-58
2021/09/13 09:05:31;;;;;;;18.42;13.02;;;;;;;;;;5029534;28;20030;-59
2021/09/13 09:07:57;;;;;;;17.95;14.05;;;;;;;;;;5031021;28;20400;-57
2021/09/13 09:10:26;;;;;;;20.83;12.48;;;;;;;;;;5029594;28;20029;-58
2021/09/13 09:12:56;;;;;;;18.20;13.13;;;;;;;;;;5033088;28;20461;-56
2021/09/13 09:15:23;;;;;;;18.15;13.80;;;;;;;;;;5041028;28;20032;-61
2021/09/13 09:17:52;;;;;;;17.55;13.15;;;;;;;;;;5038558;28;20031;-60
2021/09/13 09:20:18;;;;;;;16.55;13.02;;;;;;;;;;5030698;28;20026;-60
2021/09/13 09:22:45;;;;;;;17.83;13.43;;;;;;;;;;5048453;28;20029;-61
2021/09/13 09:25:24;;;;;;;15.73;12.48;;;;;;;;;;5048697;28;20021;-60
2021/09/13 09:28:10;;;;;;;17.67;13.50;;;;;;;;;;5050991;28;20021;-61
2021/09/13 09:30:46;;;;;;;16.63;12.40;;;;;;;;;;5050543;28;20403;-60
2021/09/13 09:33:20;;;;;;;16.33;13.00;;;;;;;;;;5049482;28;20063;-60
2021/09/13 09:35:56;;;;;;;16.85;13.32;;;;;;;;;;5049514;28;20041;-58
2021/09/13 09:38:34;;;;;;;16.88;13.15;;;;;;;;;;5034675;28;20026;-61
2021/09/13 09:41:00;;;;;;;17.58;13.98;;;;;;;;;;5042023;28;20098;-59
2021/09/13 09:43:26;;;;;;;19.25;13.75;;;;;;;;;;5048472;28;20059;-58
2021/09/13 09:45:52;;;;;;;16.92;13.98;;;;;;;;;;5050641;28;20389;-58
2021/09/13 09:48:19;;;;;;;17.98;14.18;;;;;;;;;;5048666;28;20032;-60
2021/09/13 09:50:45;;;;;;;18.30;14.80;;;;;;;;;;5050045;28;20066;-59
2021/09/13 09:53:15;;;;;;;18.40;14.68;;;;;;;;;;5049901;28;20029;-58
2021/09/13 09:55:41;;;;;;;19.25;14.98;;;;;;;;;;5048571;28;20481;-60
2021/09/13 09:58:10;;;;;;;18.42;14.30;;;;;;;;;;5038729;28;20761;-60
2021/09/13 10:00:37;;;;;;;18.95;14.30;;;;;;;;;;5030116;28;20049;-58
2021/09/13 10:03:04;;;;;;;18.23;14.45;;;;;;;;;;5029394;28;20029;-60
2021/09/13 10:05:30;;;;;;;17.25;14.73;;;;;;;;;;5028859;28;20030;-58
2021/09/13 10:07:56;;;;;;;18.17;14.80;;;;;;;;;;5030120;28;20489;-59
2021/09/13 10:10:30;;;;;;;19.60;15.00;;;;;;;;;;5030157;28;20025;-60
2021/09/13 10:12:57;;;;;;;18.10;14.27;;;;;;;;;;5030296;28;20474;-61
2021/09/13 10:15:23;;;;;;;17.20;14.50;;;;;;;;;;5027876;28;20037;-59
2021/09/13 10:17:49;;;;;;;17.30;14.25;;;;;;;;;;5045561;28;20044;-64
2021/09/13 10:20:15;;;;;;;19.00;14.90;;;;;;;;;;5049581;28;20029;-63
2021/09/13 10:22:43;;;;;;;20.02;15.15;;;;;;;;;;5047899;28;20029;-64
2021/09/13 10:25:10;;;;;;;17.85;14.77;;;;;;;;;;5048044;28;20032;-64
2021/09/13 10:27:37;;;;;;;17.15;15.00;;;;;;;;;;5048427;28;20029;-64
2021/09/13 10:30:10;;;;;;;16.65;14.27;;;;;;;;;;5048271;28;20348;-63
2021/09/13 10:32:36;;;;;;;16.23;13.88;;;;;;;;;;5038912;28;20037;-63
2021/09/13 10:35:03;;;;;;;16.90;14.00;;;;;;;;;;5029201;28;20481;-63
2021/09/13 10:37:58;;;;;;;16.20;13.65;;;;;;;;;;5029465;28;20033;-64
2021/09/13 10:40:31;;;;;;;15.70;13.45;;;;;;;;;;5020881;28;20103;-64
2021/09/13 10:43:17;;;;;;;16.65;13.77;;;;;;;;;;5029373;28;20407;-64
2021/09/13 10:45:43;;;;;;;15.60;13.57;;;;;;;;;;5041080;28;20021;-63
2021/09/13 10:48:16;;;;;;;15.98;13.77;;;;;;;;;;5048542;28;20051;-63
2021/09/13 10:50:47;;;;;;;15.93;13.55;;;;;;;;;;5048956;28;20033;-64
2021/09/13 10:53:19;;;;;;;16.45;13.93;;;;;;;;;;5048085;28;20086;-64
2021/09/13 10:55:46;;;;;;;16.98;13.93;;;;;;;;;;5048325;28;20041;-63
2021/09/13 10:58:13;;;;;;;16.20;14.25;;;;;;;;;;5048005;28;20025;-64
2021/09/13 11:00:40;;;;;;;17.00;14.13;;;;;;;;;;5038952;28;20060;-64
2021/09/13 11:06:16;;;;;;;16.55;14.15;;;;;;;;;;5027776;28;20029;-64
2021/09/13 11:08:42;;;;;;;16.65;14.55;;;;;;;;;;5021640;28;20033;-64
2021/09/13 11:11:14;;;;;;;17.02;14.77;;;;;;;;;;5028294;28;20560;-65
2021/09/13 11:13:41;;;;;;;16.35;14.57;;;;;;;;;;5028127;28;20092;-65
2021/09/13 11:16:08;;;;;;;16.92;15.05;;;;;;;;;;5028761;28;20363;-65
2021/09/13 11:18:35;;;;;;;16.73;14.80;;;;;;;;;;5028729;28;20036;-65
2021/09/13 11:21:14;;;;;;;18.17;15.40;;;;;;;;;;5033967;28;20037;-65
2021/09/13 11:23:40;;;;;;;17.75;15.02;;;;;;;;;;5047831;28;20063;-65
2021/09/13 11:26:06;;;;;;;17.88;15.65;;;;;;;;;;5048654;28;20108;-65
2021/09/13 11:28:32;;;;;;;17.13;14.88;;;;;;;;;;5047204;28;20478;-65
2021/09/13 11:30:58;;;;;;;17.30;15.25;;;;;;;;;;5048991;28;20033;-65
2021/09/13 11:33:24;;;;;;;17.45;14.73;;;;;;;;;;5048286;28;20056;-65
2021/09/13 11:35:57;;;;;;;17.98;15.10;;;;;;;;;;5046797;28;20075;-65
2021/09/13 11:38:23;;;;;;;16.90;15.10;;;;;;;;;;5048066;28;20116;-65
2021/09/13 11:40:49;;;;;;;16.90;15.05;;;;;;;;;;5047800;28;20119;-65
2021/09/13 11:43:15;;;;;;;16.90;14.95;;;;;;;;;;5029169;28;20220;-65
2021/09/13 11:45:41;;;;;;;17.00;15.20;;;;;;;;;;5028300;28;20067;-64
2021/09/13 11:48:07;;;;;;;17.75;15.10;;;;;;;;;;5028565;28;20101;-65
2021/09/13 11:50:36;;;;;;;17.45;14.68;;;;;;;;;;5028419;28;20033;-65
2021/09/13 11:53:12;;;;;;;16.40;14.18;;;;;;;;;;5028384;28;20502;-65
2021/09/13 11:55:38;;;;;;;18.42;14.60;;;;;;;;;;5038414;28;20111;-65
2021/09/13 11:58:07;;;;;;;17.23;14.60;;;;;;;;;;5051083;28;20033;-65
2021/09/13 12:00:38;;;;;;;18.08;15.25;;;;;;;;;;5049770;28;20120;-65
2021/09/13 12:05:45;;;;;;;16.70;14.85;;;;;;;;;;5051496;28;20057;-65
2021/09/13 12:08:18;;;;;;;16.60;14.75;;;;;;;;;;5055707;28;20392;-63
2021/09/13 12:10:47;;;;;;;16.40;14.40;;;;;;;;;;5045542;28;20056;-64
2021/09/13 12:13:14;;;;;;;17.45;14.95;;;;;;;;;;5055371;28;20472;-65
2021/09/13 12:15:41;;;;;;;17.65;14.85;;;;;;;;;;5038095;28;20025;-65
2021/09/13 12:18:10;;;;;;;17.70;15.48;;;;;;;;;;5057210;28;20052;-66
2021/09/13 12:20:40;;;;;;;16.90;15.10;;;;;;;;;;5060208;28;20021;-65
2021/09/13 12:23:11;;;;;;;16.73;14.82;;;;;;;;;;5042353;28;20108;-65
2021/09/13 12:25:45;;;;;;;17.98;15.40;;;;;;;;;;5054593;28;20029;-65
2021/09/13 12:28:15;;;;;;;18.65;15.50;;;;;;;;;;5053877;28;20071;-63
2021/09/13 12:30:42;;;;;;;17.25;15.00;;;;;;;;;;5053976;28;20024;-64
2021/09/13 12:33:09;;;;;;;16.95;15.13;;;;;;;;;;5054055;28;20027;-64
2021/09/13 12:35:49;;;;;;;17.70;15.90;;;;;;;;;;5056448;28;20031;-64
2021/09/13 12:38:18;;;;;;;17.38;15.00;;;;;;;;;;5057027;28;20424;-64
2021/09/13 12:40:54;;;;;;;16.90;15.02;;;;;;;;;;5056962;28;20055;-64
2021/09/13 12:43:22;;;;;;;16.35;14.55;;;;;;;;;;5056930;28;20028;-64
2021/09/13 12:45:48;;;;;;;17.37;15.20;;;;;;;;;;5044276;28;20029;-64
2021/09/13 12:48:23;;;;;;;16.67;14.88;;;;;;;;;;5055462;28;20036;-64
2021/09/13 12:50:52;;;;;;;17.00;15.20;;;;;;;;;;5054132;28;20036;-63
2021/09/13 12:53:26;;;;;;;16.63;14.50;;;;;;;;;;5071994;28;20434;-64
2021/09/13 12:55:52;;;;;;;16.80;14.98;;;;;;;;;;5061011;28;20032;-63
2021/09/13 12:58:25;;;;;;;16.90;15.10;;;;;;;;;;5055740;28;20436;-64
2021/09/13 13:00:52;;;;;;;17.20;14.80;;;;;;;;;;5054094;28;20134;-63
2021/09/13 13:03:18;;;;;;;17.70;15.80;;;;;;;;;;5053632;28;20082;-64
2021/09/13 13:05:53;;;;;;;17.17;15.30;;;;;;;;;;5053272;28;20116;-65
2021/09/13 13:08:20;;;;;;;17.30;15.40;;;;;;;;;;4703733;28;10000181;-65
2021/09/13 13:10:46;;;;;;;16.60;14.80;;;;;;;;;;5052588;28;20536;-64
2021/09/13 13:13:13;;;;;;;17.10;15.30;;;;;;;;;;5050294;28;20051;-66
2021/09/13 13:15:39;;;;;;;16.77;14.93;;;;;;;;;;5051167;28;20037;-65
2021/09/13 13:18:22;;;;;;;17.55;15.65;;;;;;;;;;5049663;28;20497;-65
2021/09/13 13:20:49;;;;;;;17.67;15.88;;;;;;;;;;5050335;28;20028;-65
2021/09/13 13:23:15;;;;;;;18.65;15.85;;;;;;;;;;5033416;28;20148;-64
2021/09/13 13:25:46;;;;;;;17.25;15.45;;;;;;;;;;5033492;28;20507;-65
2021/09/13 13:28:12;;;;;;;17.15;15.35;;;;;;;;;;5050553;28;20031;-63
2021/09/13 13:30:39;;;;;;;17.77;15.98;;;;;;;;;;5042068;28;20485;-66
2021/09/13 13:33:07;;;;;;;17.65;15.85;;;;;;;;;;5050868;28;20025;-64
2021/09/13 13:35:33;;;;;;;17.58;15.77;;;;;;;;;;5041350;28;20449;-65
2021/09/13 13:38:00;;;;;;;17.42;15.63;;;;;;;;;;5040906;28;20025;-64
2021/09/13 13:40:27;;;;;;;18.25;16.25;;;;;;;;;;5040282;28;20439;-63
2021/09/13 13:42:53;;;;;;;19.42;16.10;;;;;;;;;;5050448;28;20047;-64
2021/09/13 13:45:19;;;;;;;17.77;15.90;;;;;;;;;;5042759;28;20481;-65
2021/09/13 13:47:45;;;;;;;17.23;15.43;;;;;;;;;;5053068;28;20040;-64
2021/09/13 13:50:12;;;;;;;21.00;15.77;;;;;;;;;;5069672;28;20412;-64
2021/09/13 13:52:39;;;;;;;17.42;15.57;;;;;;;;;;5069083;28;20040;-63
2021/09/13 13:55:06;;;;;;;17.55;15.75;;;;;;;;;;5069946;28;20097;-64
2021/09/13 13:57:31;;;;;;;17.23;15.40;;;;;;;;;;5070399;28;20032;-63
2021/09/13 13:59:57;;;;;;;17.90;16.10;;;;;;;;;;5070498;28;20357;-63
2021/09/13 14:02:23;;;;;;;23.02;16.35;;;;;;;;;;5069970;28;20025;-64
2021/09/13 14:04:49;;;;;;;18.58;16.67;;;;;;;;;;5052022;28;20040;-64
2021/09/13 14:07:16;;;;;;;18.38;16.48;;;;;;;;;;5045547;28;20078;-64
2021/09/13 14:09:42;;;;;;;18.35;16.35;;;;;;;;;;5034471;28;20033;-65
2021/09/13 14:12:08;;;;;;;18.02;16.13;;;;;;;;;;5051516;28;20025;-65
2021/09/13 14:14:34;;;;;;;19.70;16.33;;;;;;;;;;5048446;28;20033;-65
2021/09/13 14:17:00;;;;;;;18.50;16.50;;;;;;;;;;5055086;28;20059;-65
2021/09/13 14:19:26;;;;;;;17.65;15.77;;;;;;;;;;5054352;28;20463;-64
2021/09/13 14:21:52;;;;;;;17.25;15.45;;;;;;;;;;5044277;28;20039;-65
2021/09/13 14:24:19;;;;;;;17.23;15.43;;;;;;;;;;5035212;28;20507;-64